createdAt,value
2023-01-17T00:07:00.422Z,3
2023-01-17T00:17:02.595Z,2.9
2023-01-17T00:37:07.024Z,3
2023-01-17T00:57:10.686Z,3.1
2023-01-17T01:07:12.595Z,3.1
2023-01-17T01:17:15.207Z,2.9
2023-01-17T01:37:19.256Z,2.8
2023-01-17T01:47:21.335Z,2.8
2023-01-17T01:57:23.512Z,2.7
2023-01-17T02:07:26.069Z,2.6
2023-01-17T02:17:28.079Z,2.5
2023-01-17T02:27:30.530Z,2.4
2023-01-17T02:37:32.501Z,2.3
2023-01-17T02:47:34.546Z,1.8
2023-01-17T02:57:36.526Z,1.4
2023-01-17T03:07:39.166Z,1.2
2023-01-17T03:17:41.154Z,0.6
2023-01-17T03:27:43.140Z,0.2
2023-01-17T03:37:45.756Z,0
2023-01-17T03:47:47.680Z,0
2023-01-17T03:57:50.300Z,0.1
2023-01-17T04:07:52.576Z,0.2
2023-01-17T04:27:57.075Z,0.3
2023-01-17T04:37:59.223Z,0.4
2023-01-17T04:48:00.989Z,0.5
2023-01-17T04:58:03.394Z,0.7
2023-01-17T05:08:05.680Z,0.8
2023-01-17T05:18:07.721Z,0.9
2023-01-17T05:28:10.106Z,0.8
2023-01-17T05:38:12.678Z,0.9
2023-01-17T05:48:14.402Z,1
2023-01-17T05:58:16.158Z,0.9
2023-01-17T06:08:18.618Z,0.9
2023-01-17T06:18:20.367Z,0.9
2023-01-17T06:28:22.504Z,0.9
2023-01-17T06:38:25.036Z,0.8
2023-01-17T06:48:27.049Z,0.8
2023-01-17T06:48:33.953Z,0.8
2023-01-17T06:58:36.216Z,0.7
2023-01-17T07:18:40.734Z,0.7
2023-01-17T07:28:43.391Z,0.8
2023-01-17T07:38:45.365Z,0.7
2023-01-17T07:48:47.456Z,0.8
2023-01-17T07:58:49.528Z,0.8
2023-01-17T08:08:51.828Z,0.7
2023-01-17T08:18:53.649Z,0.8
2023-01-17T08:28:55.883Z,0.7
2023-01-17T08:38:57.918Z,0.8
2023-01-17T08:49:00.489Z,0.9
2023-01-17T08:59:02.927Z,1
2023-01-17T09:09:05.434Z,1
2023-01-17T09:19:07.358Z,1
2023-01-17T09:29:09.839Z,1.1
2023-01-17T09:39:12.294Z,1.3
2023-01-17T09:49:14.191Z,1.3
2023-01-17T09:59:18.741Z,1.6
2023-01-17T10:09:19.046Z,1.8
2023-01-17T10:19:20.987Z,1.8
2023-01-17T10:29:23.117Z,2
2023-01-17T10:39:25.587Z,1.8
2023-01-17T10:49:27.673Z,2
2023-01-17T10:59:29.409Z,2
2023-01-17T11:19:33.228Z,1.9
2023-01-17T11:29:36.882Z,2
2023-01-17T11:39:37.857Z,3
2023-01-17T11:49:40.257Z,3.4
2023-01-17T11:59:42.501Z,2.7
2023-01-17T12:09:45.019Z,2.4
2023-01-17T12:19:47.282Z,2.6
2023-01-17T12:29:49.053Z,2.5
2023-01-17T12:39:51.562Z,2.7
2023-01-17T12:49:53.749Z,2.7
2023-01-17T12:59:56.136Z,2.7
2023-01-17T13:20:00.234Z,3.2
2023-01-17T13:30:02.400Z,3.6
2023-01-17T13:40:04.114Z,3.4
2023-01-17T13:50:05.852Z,3.3
2023-01-17T14:00:08.374Z,3.2
2023-01-17T14:10:10.952Z,3.1
2023-01-17T14:20:12.987Z,2.9
2023-01-17T14:30:14.665Z,2.9
2023-01-17T14:40:16.585Z,2.7
2023-01-17T14:50:19.164Z,2.5
2023-01-17T15:00:21.418Z,2.2
2023-01-17T15:10:23.594Z,2
2023-01-17T15:20:25.934Z,2
2023-01-17T15:30:28.185Z,1.6
2023-01-17T15:40:30.207Z,1.9
2023-01-17T15:50:31.896Z,1.8
2023-01-17T16:00:34.455Z,1.5
2023-01-17T16:10:36.405Z,1.1
2023-01-17T16:20:38.274Z,1
2023-01-17T16:30:40.382Z,0.9
2023-01-17T16:40:42.932Z,0.8
2023-01-17T16:50:44.638Z,0.7
2023-01-17T17:00:47.228Z,0.9
2023-01-17T17:10:49.472Z,0.7
2023-01-17T17:20:51.323Z,0.6
2023-01-17T17:30:53.556Z,0.6
2023-01-17T17:40:55.621Z,0.3
2023-01-17T17:50:59.554Z,0
2023-01-17T18:00:59.961Z,-0.3
2023-01-17T18:11:02.599Z,-0.6
2023-01-17T18:21:04.942Z,-0.7
2023-01-17T18:41:08.712Z,-1.4
2023-01-17T18:51:10.423Z,-1.3
2023-01-17T19:01:12.159Z,-1.4
2023-01-17T19:11:14.745Z,-1.7
2023-01-17T19:21:16.648Z,-1.8
2023-01-17T19:31:18.529Z,-2
2023-01-17T19:41:20.760Z,-1.6
2023-01-17T19:51:23.204Z,-1.6
2023-01-17T20:01:24.970Z,-1.9
2023-01-17T20:11:26.833Z,-2
2023-01-17T20:21:28.954Z,-2.3
2023-01-17T20:31:31.029Z,-2.3
2023-01-17T20:41:32.877Z,-2.3
2023-01-17T20:51:35.329Z,-2.4
2023-01-17T21:01:37.313Z,-2.4
2023-01-17T21:11:39.314Z,-2.7
2023-01-17T21:31:43.303Z,-2.7
2023-01-17T21:41:45.503Z,-2.8
2023-01-17T21:51:47.671Z,-2.8
2023-01-17T22:01:50.197Z,-3.1
2023-01-17T22:11:51.937Z,-3.1
2023-01-17T22:21:54.285Z,-3.3
2023-01-17T22:31:56.506Z,-3.1
2023-01-17T22:41:58.871Z,-3.3
2023-01-17T22:52:00.948Z,-3.4
2023-01-17T23:02:03.511Z,-3.4
2023-01-17T23:12:05.616Z,-3.7
2023-01-17T23:22:07.668Z,-3.6
2023-01-17T23:32:09.566Z,-3.5
2023-01-17T23:42:11.497Z,-3.6
2023-01-17T23:52:13.739Z,-3.7
